Time;durP1;ratioP1;P1;durP2;ratioP2;P2;SDS_P1;SDS_P2;PMS_P1;PMS_P2;Temp;Humidity;BMP_temperature;BMP_pressure;BME280_temperature;BME280_humidity;BME280_pressure;Samples;Min_cycle;Max_cycle;Signal;HPM_P1;HPM_P2
2023/10/17 00:00:32;;;;;;;;;;;13.10;49.40;;;;;;5008584;28;114302;-83
2023/10/17 00:02:59;;;;;;;;;;;13.10;49.30;;;;;;5007676;28;114629;-83
2023/10/17 00:05:29;;;;;;;;;;;13.10;49.40;;;;;;5008123;28;113956;-84
2023/10/17 00:07:58;;;;;;;;;;;13.10;49.30;;;;;;5008078;28;114157;-83
2023/10/17 00:10:31;;;;;;;;;;;13.10;49.40;;;;;;5006026;28;115558;-83
2023/10/17 00:13:18;;;;;;;;;;;13.10;49.30;;;;;;5007575;28;114593;-83
2023/10/17 00:15:46;;;;;;;;;;;13.10;49.30;;;;;;5008074;28;114173;-82
2023/10/17 00:18:16;;;;;;;;;;;13.10;49.30;;;;;;5008387;28;114390;-82
2023/10/17 00:20:44;;;;;;;;;;;13.10;49.30;;;;;;5006423;28;115161;-83
2023/10/17 00:23:15;;;;;;;;;;;13.10;49.30;;;;;;5006817;28;114643;-83
2023/10/17 00:25:42;;;;;;;;;;;13.00;49.30;;;;;;5007826;28;114193;-83
2023/10/17 00:28:13;;;;;;;;;;;13.00;49.30;;;;;;5007772;28;114156;-83
2023/10/17 00:30:41;;;;;;;;;;;13.00;49.40;;;;;;5005534;28;114280;-83
2023/10/17 00:33:12;;;;;;;;;;;13.00;49.40;;;;;;5007224;28;114703;-83
2023/10/17 00:35:45;;;;;;;;;;;13.00;49.40;;;;;;5007817;28;114884;-84
2023/10/17 00:38:15;;;;;;;;;;;13.00;49.40;;;;;;5006489;28;114306;-83
2023/10/17 00:40:51;;;;;;;;;;;13.00;49.40;;;;;;4988861;28;118034;-83
2023/10/17 00:43:19;;;;;;;;;;;13.00;49.40;;;;;;5006407;28;114657;-83
2023/10/17 00:45:47;;;;;;;;;;;12.90;49.40;;;;;;5008186;28;114234;-84
2023/10/17 00:48:28;;;;;;;;;;;12.90;49.40;;;;;;5006554;28;114121;-83
2023/10/17 00:51:07;;;;;;;;;;;12.90;49.40;;;;;;5006388;28;114904;-82
2023/10/17 00:53:40;;;;;;;;;;;12.90;49.40;;;;;;5005503;28;114630;-83
2023/10/17 00:56:07;;;;;;;;;;;12.90;49.40;;;;;;5007596;28;114451;-84
2023/10/17 00:58:36;;;;;;;;;;;12.90;49.40;;;;;;4989883;28;114286;-83
2023/10/17 01:01:09;;;;;;;;;;;12.90;49.50;;;;;;5004500;28;114881;-83
2023/10/17 01:03:41;;;;;;;;;;;12.90;49.50;;;;;;5006271;28;114659;-82
2023/10/17 01:08:53;;;;;;;;;;;12.90;49.40;;;;;;5006125;28;114434;-83
2023/10/17 01:11:20;;;;;;;;;;;12.90;49.40;;;;;;5004934;28;115019;-83
2023/10/17 01:13:49;;;;;;;;;;;12.90;49.40;;;;;;5004880;28;114538;-84
2023/10/17 01:16:16;;;;;;;;;;;12.90;49.40;;;;;;5006926;28;114575;-83
2023/10/17 01:18:47;;;;;;;;;;;12.80;48.50;;;;;;5005552;28;114253;-83
2023/10/17 01:21:14;;;;;;;;;;;12.60;48.80;;;;;;5004998;28;114939;-83
2023/10/17 01:23:42;;;;;;;;;;;12.50;48.90;;;;;;5004766;28;114579;-83
2023/10/17 01:26:09;;;;;;;;;;;12.40;48.50;;;;;;5005337;28;114208;-83
2023/10/17 01:28:36;;;;;;;;;;;12.30;49.00;;;;;;5005628;28;114388;-83
2023/10/17 01:31:03;;;;;;;;;;;12.20;48.70;;;;;;5004283;28;116133;-83
2023/10/17 01:33:31;;;;;;;;;;;12.20;49.00;;;;;;5005530;28;116347;-83
2023/10/17 01:35:58;;;;;;;;;;;12.20;49.30;;;;;;5006622;28;114409;-83
2023/10/17 01:38:26;;;;;;;;;;;12.20;49.40;;;;;;5006822;28;114323;-83
2023/10/17 01:40:56;;;;;;;;;;;12.20;48.80;;;;;;5005804;28;114909;-84
2023/10/17 01:43:23;;;;;;;;;;;12.10;48.90;;;;;;4993459;28;115068;-82
2023/10/17 01:45:50;;;;;;;;;;;12.10;49.00;;;;;;5024313;28;114444;-84
2023/10/17 01:48:21;;;;;;;;;;;12.10;49.00;;;;;;5012388;28;114201;-83
2023/10/17 01:50:48;;;;;;;;;;;12.00;48.90;;;;;;5027799;28;114922;-82
2023/10/17 01:53:15;;;;;;;;;;;12.00;49.10;;;;;;5029698;28;114556;-83
2023/10/17 01:55:45;;;;;;;;;;;12.00;49.30;;;;;;5012432;28;114272;-82
2023/10/17 01:58:15;;;;;;;;;;;12.10;49.40;;;;;;5030422;27;114131;-82
2023/10/17 02:00:43;;;;;;;;;;;12.20;49.50;;;;;;5028107;28;114830;-82
2023/10/17 02:03:16;;;;;;;;;;;12.20;49.60;;;;;;5028035;28;114601;-83
2023/10/17 02:05:44;;;;;;;;;;;12.30;49.50;;;;;;5030202;28;114270;-83
2023/10/17 02:08:11;;;;;;;;;;;12.40;49.50;;;;;;5029047;28;114381;-83
2023/10/17 02:10:38;;;;;;;;;;;12.40;49.50;;;;;;5011575;28;117600;-83
2023/10/17 02:13:07;;;;;;;;;;;12.50;49.50;;;;;;5027801;28;115086;-84
2023/10/17 02:15:34;;;;;;;;;;;12.50;49.50;;;;;;5028189;28;114579;-83
2023/10/17 02:18:12;;;;;;;;;;;12.50;49.60;;;;;;5011931;28;114425;-83
2023/10/17 02:20:51;;;;;;;;;;;12.50;49.50;;;;;;5027846;28;114974;-83
2023/10/17 02:23:25;;;;;;;;;;;12.50;49.50;;;;;;5010806;28;117487;-82
2023/10/17 02:25:54;;;;;;;;;;;12.50;49.50;;;;;;5013104;28;114164;-81
2023/10/17 02:28:22;;;;;;;;;;;12.60;49.50;;;;;;5028564;28;114158;-82
2023/10/17 02:30:49;;;;;;;;;;;12.60;49.60;;;;;;5028748;28;115003;-82
2023/10/17 02:33:17;;;;;;;;;;;12.60;49.60;;;;;;5028989;28;114706;-83
2023/10/17 02:36:07;;;;;;;;;;;12.70;49.50;;;;;;5029580;28;114605;-83
2023/10/17 02:38:36;;;;;;;;;;;12.60;49.50;;;;;;5029044;27;114398;-82
2023/10/17 02:41:05;;;;;;;;;;;12.70;49.50;;;;;;5027987;27;114981;-83
2023/10/17 02:43:37;;;;;;;;;;;12.70;49.50;;;;;;5028516;28;114495;-82
2023/10/17 02:46:04;;;;;;;;;;;12.70;49.50;;;;;;5027853;28;114450;-82
2023/10/17 02:48:38;;;;;;;;;;;12.70;49.50;;;;;;5029391;27;114147;-83
2023/10/17 02:51:11;;;;;;;;;;;12.70;49.40;;;;;;5010586;28;114899;-83
2023/10/17 02:53:43;;;;;;;;;;;12.70;49.40;;;;;;5027243;27;114614;-84
2023/10/17 02:56:19;;;;;;;;;;;12.70;49.40;;;;;;5029014;27;114227;-84
2023/10/17 02:59:33;;;;;;;;;;;12.70;49.40;;;;;;5029138;27;114428;-83
2023/10/17 03:01:38;;;;;;;;;;;12.70;49.40;;;;;;5025907;28;114857;-82
2023/10/17 03:04:12;;;;;;;;;;;12.60;49.40;;;;;;5010499;28;114876;-82
2023/10/17 03:06:42;;;;;;;;;;;12.60;49.40;;;;;;5027069;28;114430;-83
2023/10/17 03:17:11;;;;;;;;;;;12.60;49.40;;;;;;5010551;28;114440;-83
2023/10/17 03:19:38;;;;;;;;;;;12.60;49.30;;;;;;5029080;28;114905;-83
2023/10/17 03:22:19;;;;;;;;;;;12.50;49.40;;;;;;5027794;28;114827;-83
2023/10/17 03:24:46;;;;;;;;;;;12.50;49.20;;;;;;5027151;28;114858;-82
2023/10/17 03:30:22;;;;;;;;;;;12.50;49.40;;;;;;5048063;27;114176;-83
2023/10/17 03:33:32;;;;;;;;;;;12.50;49.30;;;;;;5028487;27;116189;-81
2023/10/17 03:36:04;;;;;;;;;;;12.40;49.30;;;;;;5020302;28;115323;-83
2023/10/17 03:38:33;;;;;;;;;;;12.40;48.80;;;;;;5016848;28;114557;-83
2023/10/17 03:43:39;;;;;;;;;;;12.20;49.20;;;;;;5026389;28;114992;-83
2023/10/17 03:46:06;;;;;;;;;;;12.20;49.30;;;;;;5027228;28;114480;-83
2023/10/17 03:48:36;;;;;;;;;;;12.20;49.20;;;;;;5028673;28;114321;-83
2023/10/17 03:53:46;;;;;;;;;;;12.20;49.50;;;;;;5028381;28;115063;-82
2023/10/17 03:56:23;;;;;;;;;;;12.20;49.50;;;;;;5011769;28;117450;-82
2023/10/17 03:58:59;;;;;;;;;;;12.20;49.40;;;;;;5030131;27;114219;-82
2023/10/17 04:01:27;;;;;;;;;;;12.20;49.40;;;;;;5029381;28;114727;-82
2023/10/17 04:03:54;;;;;;;;;;;12.20;49.40;;;;;;5030232;28;114917;-83
2023/10/17 04:06:32;;;;;;;;;;;12.10;48.70;;;;;;5029739;27;115342;-82
2023/10/17 04:11:46;;;;;;;;;;;11.70;49.10;;;;;;5030914;28;114348;-83
2023/10/17 04:14:13;;;;;;;;;;;11.70;49.30;;;;;;5009298;28;115171;-84
2023/10/17 04:16:43;;;;;;;;;;;11.80;49.50;;;;;;5027425;28;114589;-83
2023/10/17 04:19:20;;;;;;;;;;;11.80;49.50;;;;;;5027766;27;114461;-83
2023/10/17 04:24:45;;;;;;;;;;;12.00;49.50;;;;;;5025097;28;116092;-82
2023/10/17 04:29:49;;;;;;;;;;;12.10;49.50;;;;;;5027972;28;114145;-83
2023/10/17 04:32:17;;;;;;;;;;;12.10;49.50;;;;;;5043336;27;114383;-83
2023/10/17 04:34:48;;;;;;;;;;;12.10;49.50;;;;;;5025659;28;115410;-84
2023/10/17 04:37:24;;;;;;;;;;;12.10;49.50;;;;;;5026421;28;115670;-84
2023/10/17 04:39:58;;;;;;;;;;;12.10;49.40;;;;;;5027732;27;114530;-83
2023/10/17 04:42:34;;;;;;;;;;;12.10;49.40;;;;;;5026898;28;114560;-83
2023/10/17 04:45:13;;;;;;;;;;;12.10;49.40;;;;;;5026453;28;115018;-82
2023/10/17 04:47:43;;;;;;;;;;;12.10;49.40;;;;;;5026660;28;115055;-83
2023/10/17 04:50:11;;;;;;;;;;;12.00;49.40;;;;;;5026927;28;114079;-83
2023/10/17 04:52:42;;;;;;;;;;;12.00;49.40;;;;;;5027839;28;114995;-84
2023/10/17 04:55:21;;;;;;;;;;;12.00;49.40;;;;;;5025475;28;115209;-83
2023/10/17 05:03:26;;;;;;;;;;;11.90;49.50;;;;;;5005250;27;114712;-83
2023/10/17 05:06:10;;;;;;;;;;;12.00;49.50;;;;;;5024059;28;115442;-84
2023/10/17 06:17:46;;;;;;;;;;;12.60;48.60;;;;;;5004227;28;114346;-82
2023/10/17 06:20:16;;;;;;;;;;;12.70;48.50;;;;;;5012173;28;114314;-82
2023/10/17 06:30:48;;;;;;;;;;;12.90;48.30;;;;;;5012031;27;114437;-82
2023/10/17 06:33:19;;;;;;;;;;;13.10;48.30;;;;;;5008630;28;115518;-82
2023/10/17 06:35:52;;;;;;;;;;;13.20;48.10;;;;;;5016984;28;114625;-81
2023/10/17 06:38:27;;;;;;;;;;;13.30;47.60;;;;;;5029003;27;114174;-82
2023/10/17 06:41:11;;;;;;;;;;;13.30;47.70;;;;;;5023326;27;114245;-83
2023/10/17 06:43:40;;;;;;;;;;;13.30;47.80;;;;;;5027320;28;114919;-81
2023/10/17 06:46:13;;;;;;;;;;;13.30;47.90;;;;;;5027881;28;114876;-83
2023/10/17 06:48:49;;;;;;;;;;;13.30;47.50;;;;;;5027846;28;114463;-82
2023/10/17 06:53:47;;;;;;;;;;;13.20;47.50;;;;;;5008254;28;116161;-82
2023/10/17 06:56:15;;;;;;;;;;;13.30;47.70;;;;;;5007087;28;115268;-82
2023/10/17 06:58:42;;;;;;;;;;;13.30;47.60;;;;;;5016296;28;114096;-83
2023/10/17 07:01:34;;;;;;;;;;;13.30;47.60;;;;;;5018065;27;114538;-82
2023/10/17 07:04:02;;;;;;;;;;;13.30;46.90;;;;;;5019256;28;114947;-80
2023/10/17 07:06:29;;;;;;;;;;;13.20;47.20;;;;;;5025281;28;114498;-83
2023/10/17 07:08:56;;;;;;;;;;;13.20;46.10;;;;;;5010960;28;114783;-81
2023/10/17 07:11:27;;;;;;;;;;;13.00;47.10;;;;;;5003626;28;114241;-82
2023/10/17 07:16:48;;;;;;;;;;;12.90;47.00;;;;;;5039470;27;115729;-81
2023/10/17 07:24:36;;;;;;;;;;;12.70;46.60;;;;;;5007853;28;115210;-82
2023/10/17 07:27:11;;;;;;;;;;;12.70;47.20;;;;;;4985678;28;117372;-82
2023/10/17 07:29:45;;;;;;;;;;;12.90;47.50;;;;;;5007064;28;114196;-83
2023/10/17 07:32:16;;;;;;;;;;;13.00;47.10;;;;;;5008406;28;114251;-83
2023/10/17 07:34:44;;;;;;;;;;;13.00;46.60;;;;;;5006066;28;115316;-81
2023/10/17 07:37:22;;;;;;;;;;;12.90;46.50;;;;;;5006318;28;118656;-81
2023/10/17 07:42:40;;;;;;;;;;;13.00;47.30;;;;;;5008158;28;114283;-81
2023/10/17 07:45:15;;;;;;;;;;;13.20;47.20;;;;;;5006973;28;116328;-81
2023/10/17 07:47:43;;;;;;;;;;;13.30;47.30;;;;;;5006392;28;114602;-81
2023/10/17 07:50:14;;;;;;;;;;;13.50;47.30;;;;;;5007706;28;114228;-80
2023/10/17 07:52:46;;;;;;;;;;;13.70;46.50;;;;;;5006603;28;114196;-81
2023/10/17 07:55:22;;;;;;;;;;;13.50;44.30;;;;;;5019696;28;114886;-81
2023/10/17 07:57:52;;;;;;;;;;;13.20;45.40;;;;;;5027120;28;115142;-81
2023/10/17 08:03:27;;;;;;;;;;;12.70;46.00;;;;;;5024665;28;117412;-80
2023/10/17 08:06:06;;;;;;;;;;;12.90;46.50;;;;;;5006785;28;115469;-81
2023/10/17 08:08:34;;;;;;;;;;;13.10;46.70;;;;;;5006936;28;114747;-80
2023/10/17 08:11:05;;;;;;;;;;;13.30;46.70;;;;;;5007465;28;114435;-80
2023/10/17 08:13:35;;;;;;;;;;;13.50;46.70;;;;;;5014274;28;114468;-80
2023/10/17 08:16:24;;;;;;;;;;;13.70;46.60;;;;;;5026955;28;115092;-81
2023/10/17 08:24:33;;;;;;;;;;;13.90;46.10;;;;;;5027707;27;114343;-80
2023/10/17 08:29:49;;;;;;;;;;;14.20;46.50;;;;;;5020866;28;115183;-79
2023/10/17 08:34:55;;;;;;;;;;;14.20;46.00;;;;;;5017554;28;114226;-80
2023/10/17 08:37:40;;;;;;;;;;;14.10;46.00;;;;;;5005751;28;117333;-80
2023/10/17 08:42:53;;;;;;;;;;;14.10;46.00;;;;;;5007213;28;114376;-81
2023/10/17 08:45:26;;;;;;;;;;;14.10;45.90;;;;;;5009794;28;114082;-82
2023/10/17 08:48:00;;;;;;;;;;;14.20;45.70;;;;;;5005251;28;114781;-80
2023/10/17 08:50:29;;;;;;;;;;;14.20;45.50;;;;;;5020289;28;115033;-81
2023/10/17 08:52:59;;;;;;;;;;;14.20;45.80;;;;;;5025468;28;114355;-80
2023/10/17 08:55:27;;;;;;;;;;;14.30;46.00;;;;;;5027326;28;114214;-81
2023/10/17 08:57:54;;;;;;;;;;;14.30;44.90;;;;;;5026389;28;114917;-80
2023/10/17 09:00:24;;;;;;;;;;;14.20;44.80;;;;;;5026350;28;114483;-79
2023/10/17 09:03:00;;;;;;;;;;;14.10;45.10;;;;;;5027189;27;114147;-80
2023/10/17 09:05:27;;;;;;;;;;;14.20;45.70;;;;;;5027522;27;114066;-80
2023/10/17 09:07:58;;;;;;;;;;;14.20;45.70;;;;;;5026198;28;114810;-79
2023/10/17 09:15:55;;;;;;;;;;;14.20;45.10;;;;;;5025872;28;114248;-81
2023/10/17 09:18:27;;;;;;;;;;;14.20;45.30;;;;;;5025363;28;114901;-80
2023/10/17 09:20:56;;;;;;;;;;;14.20;45.30;;;;;;5026671;28;114636;-82
2023/10/17 09:23:24;;;;;;;;;;;13.80;43.40;;;;;;5026917;27;114170;-80
2023/10/17 09:25:54;;;;;;;;;;;13.40;43.40;;;;;;5025819;28;114391;-80
2023/10/17 09:28:22;;;;;;;;;;;13.20;44.20;;;;;;5026097;28;114936;-81
2023/10/17 09:31:00;;;;;;;;;;;13.10;44.40;;;;;;5026499;27;114558;-80
2023/10/17 09:33:33;;;;;;;;;;;13.20;45.10;;;;;;5025419;28;114279;-79
2023/10/17 09:36:04;;;;;;;;;;;13.30;45.20;;;;;;5026916;28;114331;-81
2023/10/17 09:38:32;;;;;;;;;;;13.50;45.00;;;;;;5024169;28;114579;-81
2023/10/17 09:41:02;;;;;;;;;;;13.60;44.90;;;;;;5024773;28;115112;-81
2023/10/17 09:43:48;;;;;;;;;;;13.70;44.70;;;;;;5026533;28;114290;-80
2023/10/17 09:46:16;;;;;;;;;;;13.70;44.90;;;;;;5022674;28;114740;-80
2023/10/17 09:48:43;;;;;;;;;;;13.70;44.50;;;;;;5022142;28;115743;-79
2023/10/17 09:51:19;;;;;;;;;;;13.70;44.60;;;;;;5016206;28;114746;-80
2023/10/17 09:53:50;;;;;;;;;;;13.70;44.20;;;;;;5025275;28;114267;-82
2023/10/17 09:56:27;;;;;;;;;;;13.70;44.50;;;;;;5022127;28;114331;-78
2023/10/17 09:58:57;;;;;;;;;;;13.70;43.90;;;;;;5003721;28;116271;-80
2023/10/17 10:01:24;;;;;;;;;;;13.70;43.80;;;;;;5019891;28;114775;-79
2023/10/17 10:04:01;;;;;;;;;;;13.70;44.30;;;;;;5011891;28;115444;-80
2023/10/17 10:06:32;;;;;;;;;;;13.70;44.00;;;;;;5029706;27;114360;-80
2023/10/17 10:09:00;;;;;;;;;;;13.70;44.30;;;;;;5027300;28;116273;-81
2023/10/17 10:11:46;;;;;;;;;;;13.80;44.50;;;;;;5028432;28;114534;-79
2023/10/17 10:14:15;;;;;;;;;;;14.00;44.60;;;;;;5029308;27;114321;-80
2023/10/17 10:16:55;;;;;;;;;;;14.10;43.60;;;;;;5029424;27;114082;-79
2023/10/17 10:19:24;;;;;;;;;;;14.00;43.70;;;;;;5027365;27;115336;-80
2023/10/17 10:21:53;;;;;;;;;;;14.00;43.20;;;;;;5044474;27;117600;-80
2023/10/17 10:24:28;;;;;;;;;;;13.80;43.60;;;;;;5029143;27;114438;-80
2023/10/17 10:27:11;;;;;;;;;;;13.90;43.50;;;;;;5029785;28;114417;-79
2023/10/17 10:29:38;;;;;;;;;;;14.00;43.80;;;;;;5029737;28;114709;-80
2023/10/17 10:32:08;;;;;;;;;;;14.10;43.80;;;;;;5027258;28;115799;-79
2023/10/17 10:34:39;;;;;;;;;;;14.10;43.60;;;;;;4995335;28;114550;-80
2023/10/17 10:37:09;;;;;;;;;;;14.10;43.10;;;;;;5028292;28;114189;-80
2023/10/17 10:39:36;;;;;;;;;;;14.00;42.80;;;;;;5028756;28;115084;-80
2023/10/17 10:42:07;;;;;;;;;;;13.90;41.80;;;;;;5028209;28;114734;-80
2023/10/17 10:44:43;;;;;;;;;;;13.80;42.20;;;;;;5028676;27;114509;-80
2023/10/17 10:47:10;;;;;;;;;;;13.70;43.00;;;;;;5029345;27;114162;-80
2023/10/17 10:49:37;;;;;;;;;;;13.80;42.40;;;;;;5026868;28;114764;-79
2023/10/17 10:52:04;;;;;;;;;;;13.70;42.90;;;;;;5026669;28;116354;-79
2023/10/17 10:55:12;;;;;;;;;;;13.80;43.00;;;;;;5027287;28;114404;-80
2023/10/17 10:57:37;;;;;;;;;;;13.80;43.00;;;;;;5021198;28;114348;-79
2023/10/17 11:00:07;;;;;;;;;;;13.80;43.20;;;;;;5006736;28;114912;-80
2023/10/17 11:02:36;;;;;;;;;;;13.80;43.30;;;;;;5008026;28;115083;-80
2023/10/17 11:05:05;;;;;;;;;;;13.80;43.10;;;;;;5008432;28;114287;-80
2023/10/17 11:07:33;;;;;;;;;;;13.70;43.10;;;;;;5007592;28;114436;-80
2023/10/17 11:10:02;;;;;;;;;;;13.70;43.20;;;;;;5007380;28;115448;-79
2023/10/17 11:12:30;;;;;;;;;;;13.60;43.20;;;;;;5029091;27;116634;-80
2023/10/17 11:15:10;;;;;;;;;;;13.60;43.20;;;;;;5007728;28;114490;-80
2023/10/17 11:17:38;;;;;;;;;;;13.50;43.30;;;;;;5001898;28;114252;-80
2023/10/17 11:20:18;;;;;;;;;;;13.60;43.40;;;;;;5011812;28;118451;-80
2023/10/17 11:22:46;;;;;;;;;;;13.50;43.50;;;;;;5023691;27;115221;-80
2023/10/17 11:25:26;;;;;;;;;;;13.50;43.40;;;;;;5001328;28;114230;-79
2023/10/17 11:27:56;;;;;;;;;;;13.40;43.20;;;;;;4993271;28;114459;-81
2023/10/17 11:30:32;;;;;;;;;;;13.40;43.40;;;;;;5008019;28;116546;-80
2023/10/17 11:33:06;;;;;;;;;;;13.40;43.50;;;;;;5007487;28;115504;-80
2023/10/17 11:35:34;;;;;;;;;;;13.40;43.30;;;;;;5022338;28;114633;-80
2023/10/17 11:38:02;;;;;;;;;;;13.30;43.20;;;;;;5024841;28;114213;-80
2023/10/17 11:40:46;;;;;;;;;;;13.30;42.90;;;;;;5015138;27;114837;-80
2023/10/17 11:43:20;;;;;;;;;;;13.20;43.30;;;;;;5008364;28;115078;-80
2023/10/17 11:45:48;;;;;;;;;;;13.30;43.40;;;;;;5021198;28;114446;-79
2023/10/17 11:48:23;;;;;;;;;;;13.30;43.40;;;;;;5026540;28;114620;-80
2023/10/17 11:51:02;;;;;;;;;;;13.30;43.20;;;;;;5013243;28;115977;-79
2023/10/17 11:53:30;;;;;;;;;;;13.20;43.00;;;;;;5022540;28;114782;-81
2023/10/17 11:55:58;;;;;;;;;;;13.10;42.90;;;;;;5006850;28;114362;-80
2023/10/17 11:58:25;;;;;;;;;;;12.90;42.70;;;;;;5006121;28;114276;-80
2023/10/17 12:00:52;;;;;;;;;;;12.80;43.50;;;;;;5011132;28;114810;-80
2023/10/17 12:03:20;;;;;;;;;;;12.90;43.70;;;;;;5007137;28;114705;-81
2023/10/17 12:05:47;;;;;;;;;;;13.00;43.50;;;;;;5010345;28;114317;-80
2023/10/17 12:08:23;;;;;;;;;;;13.10;43.60;;;;;;5018699;28;114190;-80
2023/10/17 12:10:50;;;;;;;;;;;13.20;43.50;;;;;;5025184;28;114789;-79
2023/10/17 12:13:20;;;;;;;;;;;13.20;43.70;;;;;;5009555;28;115700;-79
2023/10/17 12:15:47;;;;;;;;;;;13.30;43.30;;;;;;5008617;28;114169;-80
2023/10/17 12:18:14;;;;;;;;;;;13.30;43.20;;;;;;5007861;28;114356;-80
2023/10/17 12:20:42;;;;;;;;;;;13.30;43.30;;;;;;5016170;28;114854;-80
2023/10/17 12:23:12;;;;;;;;;;;13.30;43.50;;;;;;5024476;28;116755;-80
2023/10/17 12:25:43;;;;;;;;;;;13.20;42.80;;;;;;5025646;27;114270;-80
2023/10/17 12:28:10;;;;;;;;;;;13.10;43.30;;;;;;5016965;28;114707;-80
2023/10/17 12:30:37;;;;;;;;;;;13.20;43.60;;;;;;5013305;28;115686;-81
2023/10/17 12:33:05;;;;;;;;;;;13.20;42.30;;;;;;5018088;28;114557;-80
2023/10/17 12:35:33;;;;;;;;;;;13.00;42.80;;;;;;5022179;28;114389;-80
2023/10/17 12:38:14;;;;;;;;;;;12.90;42.70;;;;;;5006984;28;114565;-80
2023/10/17 12:40:42;;;;;;;;;;;12.90;43.40;;;;;;5025242;28;116855;-80
2023/10/17 12:43:11;;;;;;;;;;;13.00;43.40;;;;;;5009227;28;114590;-81
2023/10/17 12:45:38;;;;;;;;;;;13.10;43.40;;;;;;5007217;28;114358;-81
2023/10/17 12:48:07;;;;;;;;;;;13.10;43.20;;;;;;5016495;28;114232;-81
2023/10/17 12:50:35;;;;;;;;;;;13.10;43.10;;;;;;5026330;28;115397;-80
2023/10/17 12:53:02;;;;;;;;;;;13.00;43.50;;;;;;5010961;28;116748;-79
2023/10/17 12:55:29;;;;;;;;;;;13.00;43.30;;;;;;5006276;28;114193;-81
2023/10/17 12:57:57;;;;;;;;;;;13.00;43.30;;;;;;5005941;28;114363;-80
2023/10/17 13:00:25;;;;;;;;;;;12.90;43.50;;;;;;5004528;28;118134;-79
2023/10/17 13:02:53;;;;;;;;;;;12.90;43.50;;;;;;5038068;27;115676;-81
2023/10/17 13:05:20;;;;;;;;;;;12.90;43.60;;;;;;5007126;28;114175;-81
2023/10/17 13:07:52;;;;;;;;;;;12.90;43.70;;;;;;5006833;28;114212;-80
2023/10/17 13:10:19;;;;;;;;;;;13.00;43.70;;;;;;5004879;28;115857;-81
2023/10/17 13:12:49;;;;;;;;;;;13.00;43.40;;;;;;5017155;28;117917;-81
2023/10/17 13:15:17;;;;;;;;;;;12.90;43.60;;;;;;5008606;28;114209;-82
2023/10/17 13:17:44;;;;;;;;;;;12.90;43.50;;;;;;5007089;28;114324;-80
2023/10/17 13:20:13;;;;;;;;;;;12.90;43.20;;;;;;5005871;28;114822;-81
2023/10/17 13:23:03;;;;;;;;;;;12.70;43.50;;;;;;5004634;28;114294;-80
2023/10/17 13:25:36;;;;;;;;;;;12.70;43.60;;;;;;5014949;28;114356;-81
2023/10/17 13:28:04;;;;;;;;;;;12.70;43.50;;;;;;5006702;28;114159;-80
2023/10/17 13:30:31;;;;;;;;;;;12.70;43.40;;;;;;5004753;28;115214;-80
2023/10/17 13:32:58;;;;;;;;;;;12.70;43.60;;;;;;5004776;28;114598;-81
2023/10/17 13:35:26;;;;;;;;;;;12.70;43.70;;;;;;5006991;28;114170;-81
2023/10/17 13:37:53;;;;;;;;;;;12.70;43.40;;;;;;5006605;28;114163;-81
2023/10/17 13:40:21;;;;;;;;;;;12.70;43.50;;;;;;5022953;28;116658;-81
2023/10/17 13:42:52;;;;;;;;;;;12.70;43.20;;;;;;5024357;28;114644;-81
2023/10/17 13:45:22;;;;;;;;;;;12.60;43.60;;;;;;5025385;28;114433;-81
2023/10/17 13:47:50;;;;;;;;;;;12.70;43.90;;;;;;5042336;27;114386;-81
2023/10/17 13:50:19;;;;;;;;;;;12.70;43.90;;;;;;5023986;28;114914;-81
2023/10/17 13:52:46;;;;;;;;;;;12.70;43.80;;;;;;5019787;28;114628;-81
2023/10/17 13:55:25;;;;;;;;;;;12.70;43.80;;;;;;5006492;28;114219;-81
2023/10/17 13:58:00;;;;;;;;;;;12.60;43.80;;;;;;5005590;28;116084;-82
2023/10/17 14:00:43;;;;;;;;;;;12.50;44.10;;;;;;5005043;28;115197;-82
2023/10/17 14:03:12;;;;;;;;;;;12.50;44.00;;;;;;5006375;28;114404;-81
2023/10/17 14:05:41;;;;;;;;;;;12.60;44.00;;;;;;5005112;28;114172;-81
2023/10/17 14:08:13;;;;;;;;;;;12.50;44.10;;;;;;5007767;28;114372;-80
2023/10/17 14:10:43;;;;;;;;;;;12.60;44.10;;;;;;5005547;28;114920;-81
2023/10/17 14:13:12;;;;;;;;;;;12.60;44.40;;;;;;5004639;28;117387;-81
2023/10/17 14:15:42;;;;;;;;;;;12.70;44.30;;;;;;4988706;28;114270;-80
2023/10/17 14:18:09;;;;;;;;;;;12.70;44.20;;;;;;5006165;28;114455;-80
2023/10/17 14:20:42;;;;;;;;;;;12.60;44.10;;;;;;5005391;28;114886;-80
2023/10/17 14:23:12;;;;;;;;;;;12.50;44.30;;;;;;4988210;28;115280;-80
2023/10/17 14:28:25;;;;;;;;;;;12.70;44.60;;;;;;5006049;28;114495;-81
2023/10/17 14:30:52;;;;;;;;;;;12.70;44.50;;;;;;5004266;28;115254;-80
2023/10/17 14:33:20;;;;;;;;;;;12.70;44.50;;;;;;5005260;28;116290;-82
2023/10/17 14:35:48;;;;;;;;;;;12.70;44.60;;;;;;5004834;28;114272;-82
2023/10/17 14:38:18;;;;;;;;;;;12.80;44.60;;;;;;5004511;28;114436;-80
2023/10/17 14:40:45;;;;;;;;;;;12.80;44.60;;;;;;5004134;28;116882;-81
2023/10/17 14:43:13;;;;;;;;;;;12.80;44.70;;;;;;5005581;28;114929;-82
2023/10/17 14:45:40;;;;;;;;;;;12.90;44.70;;;;;;5006536;28;114366;-81
2023/10/17 14:48:11;;;;;;;;;;;12.90;44.80;;;;;;5025882;27;114210;-82
2023/10/17 14:50:39;;;;;;;;;;;13.00;44.80;;;;;;5025848;27;115515;-82
2023/10/17 14:53:06;;;;;;;;;;;13.00;44.90;;;;;;5027101;28;115231;-81
2023/10/17 14:55:34;;;;;;;;;;;13.10;44.60;;;;;;5011179;28;114506;-81
2023/10/17 14:58:01;;;;;;;;;;;13.00;44.70;;;;;;5017102;28;114402;-81
2023/10/17 15:00:28;;;;;;;;;;;13.00;44.80;;;;;;5027613;28;114926;-81
2023/10/17 15:02:58;;;;;;;;;;;13.10;44.90;;;;;;5011592;28;115818;-81
2023/10/17 15:05:26;;;;;;;;;;;13.00;45.00;;;;;;5008681;28;115114;-80
2023/10/17 15:07:54;;;;;;;;;;;13.10;45.10;;;;;;5009171;28;114117;-80
2023/10/17 15:10:24;;;;;;;;;;;13.10;45.20;;;;;;5008256;28;115821;-80
2023/10/17 15:12:52;;;;;;;;;;;13.10;45.20;;;;;;5008324;28;114537;-80
2023/10/17 15:15:19;;;;;;;;;;;13.20;45.20;;;;;;5020675;28;114327;-81
2023/10/17 15:17:47;;;;;;;;;;;13.20;45.20;;;;;;5019750;28;114627;-79
2023/10/17 15:20:15;;;;;;;;;;;13.20;45.20;;;;;;5006643;28;114838;-81
2023/10/17 15:22:42;;;;;;;;;;;13.20;45.20;;;;;;5010801;28;114886;-80
2023/10/17 15:25:12;;;;;;;;;;;13.20;45.30;;;;;;5009449;28;114182;-81
2023/10/17 15:27:40;;;;;;;;;;;13.20;45.30;;;;;;5017875;28;114410;-81
2023/10/17 15:30:08;;;;;;;;;;;13.20;45.40;;;;;;5022654;28;117843;-82
2023/10/17 15:32:42;;;;;;;;;;;13.20;45.40;;;;;;5008437;28;114783;-81
2023/10/17 15:35:15;;;;;;;;;;;13.20;45.50;;;;;;4991084;28;114525;-81
2023/10/17 15:37:46;;;;;;;;;;;13.20;45.50;;;;;;5009802;28;114320;-81
2023/10/17 15:40:16;;;;;;;;;;;13.20;45.50;;;;;;5014155;28;114922;-81
2023/10/17 15:42:44;;;;;;;;;;;13.20;45.60;;;;;;5026906;28;114585;-81
2023/10/17 15:45:14;;;;;;;;;;;13.20;45.60;;;;;;5023756;28;114584;-81
2023/10/17 15:47:44;;;;;;;;;;;13.20;45.70;;;;;;5007683;28;114262;-80
2023/10/17 15:50:17;;;;;;;;;;;13.20;45.70;;;;;;5007564;28;116269;-81
2023/10/17 15:52:44;;;;;;;;;;;13.20;45.80;;;;;;5024970;28;117305;-82
2023/10/17 15:55:12;;;;;;;;;;;13.20;45.80;;;;;;5022949;28;114261;-81
2023/10/17 15:57:39;;;;;;;;;;;13.20;45.90;;;;;;4990798;28;114377;-82
2023/10/17 16:00:13;;;;;;;;;;;13.10;45.90;;;;;;5013465;28;115306;-81
2023/10/17 16:02:41;;;;;;;;;;;13.10;46.00;;;;;;5027288;28;114685;-81
2023/10/17 16:05:10;;;;;;;;;;;13.10;46.00;;;;;;5028187;27;114379;-81
2023/10/17 16:07:39;;;;;;;;;;;13.10;46.00;;;;;;5028090;28;114164;-81
2023/10/17 16:10:10;;;;;;;;;;;13.10;46.00;;;;;;5007524;28;116932;-81
2023/10/17 16:12:37;;;;;;;;;;;13.10;46.10;;;;;;5013785;28;116781;-81
2023/10/17 16:15:06;;;;;;;;;;;13.10;46.10;;;;;;5017507;27;115032;-81
2023/10/17 16:17:33;;;;;;;;;;;13.00;46.10;;;;;;5024278;27;115119;-82
2023/10/17 16:20:01;;;;;;;;;;;13.00;46.20;;;;;;5022343;27;114764;-80
2023/10/17 16:22:28;;;;;;;;;;;13.00;46.30;;;;;;5015695;28;116038;-81
2023/10/17 16:24:55;;;;;;;;;;;13.00;46.30;;;;;;4976421;28;114372;-80
2023/10/17 16:27:22;;;;;;;;;;;13.00;46.30;;;;;;5017194;28;114605;-81
2023/10/17 16:29:50;;;;;;;;;;;12.90;46.40;;;;;;5006575;28;115710;-79
2023/10/17 16:32:20;;;;;;;;;;;12.90;46.30;;;;;;5007929;28;114778;-81
2023/10/17 16:34:47;;;;;;;;;;;12.90;46.50;;;;;;5026833;27;114342;-81
2023/10/17 16:37:17;;;;;;;;;;;12.80;46.50;;;;;;5024637;27;114343;-80
2023/10/17 16:39:50;;;;;;;;;;;12.80;46.60;;;;;;5015490;28;115001;-80
2023/10/17 16:42:18;;;;;;;;;;;12.90;46.60;;;;;;5011938;28;117659;-79
2023/10/17 16:44:48;;;;;;;;;;;12.80;46.60;;;;;;5006653;28;114438;-80
2023/10/17 16:47:19;;;;;;;;;;;12.80;46.60;;;;;;5018744;28;114875;-80
2023/10/17 16:49:47;;;;;;;;;;;12.70;46.70;;;;;;5017828;28;116051;-79
2023/10/17 16:52:14;;;;;;;;;;;12.70;46.80;;;;;;5017297;28;115159;-79